sensor_id;sensor_type;location;lat;lon;timestamp;P1;durP1;ratioP1;P2;durP2;ratioP2
3916;SDS011;1973;50.518;7.318;2023-07-29T00:00:01;4.23;;;1.70;;
3916;SDS011;1973;50.518;7.318;2023-07-29T00:02:29;2.00;;;1.63;;
3916;SDS011;1973;50.518;7.318;2023-07-29T00:04:57;4.23;;;1.50;;
3916;SDS011;1973;50.518;7.318;2023-07-29T00:07:23;2.00;;;1.70;;
3916;SDS011;1973;50.518;7.318;2023-07-29T00:09:50;1.90;;;1.40;;
3916;SDS011;1973;50.518;7.318;2023-07-29T00:12:16;6.30;;;1.60;;
3916;SDS011;1973;50.518;7.318;2023-07-29T00:14:43;3.73;;;1.50;;
3916;SDS011;1973;50.518;7.318;2023-07-29T00:17:09;6.77;;;1.73;;
3916;SDS011;1973;50.518;7.318;2023-07-29T00:19:36;3.27;;;1.67;;
3916;SDS011;1973;50.518;7.318;2023-07-29T00:22:02;2.20;;;1.50;;
3916;SDS011;1973;50.518;7.318;2023-07-29T00:24:30;2.40;;;1.53;;
3916;SDS011;1973;50.518;7.318;2023-07-29T00:26:57;3.77;;;1.50;;
3916;SDS011;1973;50.518;7.318;2023-07-29T00:29:23;4.23;;;1.50;;
3916;SDS011;1973;50.518;7.318;2023-07-29T00:31:50;2.60;;;1.87;;
3916;SDS011;1973;50.518;7.318;2023-07-29T00:34:16;1.70;;;1.30;;
3916;SDS011;1973;50.518;7.318;2023-07-29T00:36:45;3.30;;;1.80;;
3916;SDS011;1973;50.518;7.318;2023-07-29T00:39:12;2.10;;;1.57;;
3916;SDS011;1973;50.518;7.318;2023-07-29T00:41:39;2.07;;;1.70;;
3916;SDS011;1973;50.518;7.318;2023-07-29T00:44:06;1.50;;;1.40;;
3916;SDS011;1973;50.518;7.318;2023-07-29T00:46:33;5.77;;;1.50;;
3916;SDS011;1973;50.518;7.318;2023-07-29T00:49:01;1.77;;;1.50;;
3916;SDS011;1973;50.518;7.318;2023-07-29T00:51:28;2.20;;;1.50;;
3916;SDS011;1973;50.518;7.318;2023-07-29T00:53:55;4.47;;;1.50;;
3916;SDS011;1973;50.518;7.318;2023-07-29T00:56:21;3.63;;;2.03;;
3916;SDS011;1973;50.518;7.318;2023-07-29T00:58:48;1.63;;;1.53;;
3916;SDS011;1973;50.518;7.318;2023-07-29T01:01:15;5.53;;;1.73;;
3916;SDS011;1973;50.518;7.318;2023-07-29T01:03:41;3.63;;;1.80;;
3916;SDS011;1973;50.518;7.318;2023-07-29T01:08:56;2.20;;;1.70;;
3916;SDS011;1973;50.518;7.318;2023-07-29T01:14:34;2.20;;;1.70;;
3916;SDS011;1973;50.518;7.318;2023-07-29T01:17:07;1.97;;;1.67;;
3916;SDS011;1973;50.518;7.318;2023-07-29T01:22:32;3.30;;;1.50;;
3916;SDS011;1973;50.518;7.318;2023-07-29T01:25:00;2.73;;;1.40;;
3916;SDS011;1973;50.518;7.318;2023-07-29T01:27:27;3.50;;;1.93;;
3916;SDS011;1973;50.518;7.318;2023-07-29T01:29:53;4.47;;;1.60;;
3916;SDS011;1973;50.518;7.318;2023-07-29T01:35:15;7.23;;;2.03;;
3916;SDS011;1973;50.518;7.318;2023-07-29T01:37:42;6.20;;;2.53;;
3916;SDS011;1973;50.518;7.318;2023-07-29T01:40:14;1.50;;;1.33;;
3916;SDS011;1973;50.518;7.318;2023-07-29T01:42:41;2.13;;;1.50;;
3916;SDS011;1973;50.518;7.318;2023-07-29T01:45:08;4.20;;;1.50;;
3916;SDS011;1973;50.518;7.318;2023-07-29T01:47:35;2.30;;;1.73;;
3916;SDS011;1973;50.518;7.318;2023-07-29T01:50:03;2.70;;;1.40;;
3916;SDS011;1973;50.518;7.318;2023-07-29T01:52:30;6.43;;;1.90;;
3916;SDS011;1973;50.518;7.318;2023-07-29T01:54:56;1.60;;;1.47;;
3916;SDS011;1973;50.518;7.318;2023-07-29T01:57:23;1.60;;;1.30;;
3916;SDS011;1973;50.518;7.318;2023-07-29T01:59:49;1.70;;;1.60;;
3916;SDS011;1973;50.518;7.318;2023-07-29T02:02:16;2.53;;;1.60;;
3916;SDS011;1973;50.518;7.318;2023-07-29T02:04:43;3.77;;;1.60;;
3916;SDS011;1973;50.518;7.318;2023-07-29T02:07:11;1.83;;;1.73;;
3916;SDS011;1973;50.518;7.318;2023-07-29T02:09:38;1.90;;;1.63;;
3916;SDS011;1973;50.518;7.318;2023-07-29T02:12:04;2.77;;;1.77;;
3916;SDS011;1973;50.518;7.318;2023-07-29T02:14:33;3.47;;;1.50;;
3916;SDS011;1973;50.518;7.318;2023-07-29T02:17:00;2.77;;;1.60;;
3916;SDS011;1973;50.518;7.318;2023-07-29T02:19:27;2.07;;;1.60;;
3916;SDS011;1973;50.518;7.318;2023-07-29T02:21:53;3.60;;;1.80;;
3916;SDS011;1973;50.518;7.318;2023-07-29T02:24:20;3.10;;;2.00;;
3916;SDS011;1973;50.518;7.318;2023-07-29T02:26:46;3.23;;;1.70;;
3916;SDS011;1973;50.518;7.318;2023-07-29T02:29:13;4.77;;;1.87;;
3916;SDS011;1973;50.518;7.318;2023-07-29T02:31:39;2.43;;;1.70;;
3916;SDS011;1973;50.518;7.318;2023-07-29T02:34:06;4.40;;;2.33;;
3916;SDS011;1973;50.518;7.318;2023-07-29T02:36:32;2.30;;;1.80;;
3916;SDS011;1973;50.518;7.318;2023-07-29T02:38:59;2.23;;;1.90;;
3916;SDS011;1973;50.518;7.318;2023-07-29T02:41:26;3.47;;;2.00;;
3916;SDS011;1973;50.518;7.318;2023-07-29T02:43:52;3.20;;;1.70;;
3916;SDS011;1973;50.518;7.318;2023-07-29T02:46:19;3.73;;;2.10;;
3916;SDS011;1973;50.518;7.318;2023-07-29T02:48:45;4.40;;;1.97;;
3916;SDS011;1973;50.518;7.318;2023-07-29T02:51:12;3.60;;;1.97;;
3916;SDS011;1973;50.518;7.318;2023-07-29T02:53:39;6.13;;;1.57;;
3916;SDS011;1973;50.518;7.318;2023-07-29T02:56:05;5.33;;;1.97;;
3916;SDS011;1973;50.518;7.318;2023-07-29T02:58:36;3.03;;;1.70;;
3916;SDS011;1973;50.518;7.318;2023-07-29T03:01:03;2.00;;;1.80;;
3916;SDS011;1973;50.518;7.318;2023-07-29T03:03:31;2.10;;;1.63;;
3916;SDS011;1973;50.518;7.318;2023-07-29T03:05:59;4.80;;;1.87;;
3916;SDS011;1973;50.518;7.318;2023-07-29T03:08:27;3.47;;;1.93;;
3916;SDS011;1973;50.518;7.318;2023-07-29T03:10:54;2.07;;;1.77;;
3916;SDS011;1973;50.518;7.318;2023-07-29T03:13:22;2.90;;;1.83;;
3916;SDS011;1973;50.518;7.318;2023-07-29T03:15:48;3.10;;;2.00;;
3916;SDS011;1973;50.518;7.318;2023-07-29T03:18:15;2.30;;;1.90;;
3916;SDS011;1973;50.518;7.318;2023-07-29T03:20:42;2.40;;;2.00;;
3916;SDS011;1973;50.518;7.318;2023-07-29T03:23:08;4.67;;;2.30;;
3916;SDS011;1973;50.518;7.318;2023-07-29T03:25:35;3.33;;;2.07;;
3916;SDS011;1973;50.518;7.318;2023-07-29T03:28:01;2.90;;;1.87;;
3916;SDS011;1973;50.518;7.318;2023-07-29T03:30:28;7.90;;;2.07;;
3916;SDS011;1973;50.518;7.318;2023-07-29T03:32:55;2.40;;;2.20;;
3916;SDS011;1973;50.518;7.318;2023-07-29T03:35:21;4.80;;;2.30;;
3916;SDS011;1973;50.518;7.318;2023-07-29T03:37:48;2.60;;;2.40;;
3916;SDS011;1973;50.518;7.318;2023-07-29T03:40:14;3.53;;;2.00;;
3916;SDS011;1973;50.518;7.318;2023-07-29T03:42:41;3.13;;;1.97;;
3916;SDS011;1973;50.518;7.318;2023-07-29T03:45:07;2.23;;;1.90;;
3916;SDS011;1973;50.518;7.318;2023-07-29T03:47:34;4.87;;;2.00;;
3916;SDS011;1973;50.518;7.318;2023-07-29T03:50:01;1.97;;;1.77;;
3916;SDS011;1973;50.518;7.318;2023-07-29T03:52:28;2.93;;;2.17;;
3916;SDS011;1973;50.518;7.318;2023-07-29T03:54:55;2.30;;;1.83;;
3916;SDS011;1973;50.518;7.318;2023-07-29T03:57:22;3.97;;;2.07;;
3916;SDS011;1973;50.518;7.318;2023-07-29T03:59:48;3.10;;;1.93;;
3916;SDS011;1973;50.518;7.318;2023-07-29T04:02:15;5.23;;;2.20;;
3916;SDS011;1973;50.518;7.318;2023-07-29T04:04:42;3.70;;;1.80;;
3916;SDS011;1973;50.518;7.318;2023-07-29T04:07:10;4.23;;;1.67;;
3916;SDS011;1973;50.518;7.318;2023-07-29T04:09:37;3.30;;;1.40;;
3916;SDS011;1973;50.518;7.318;2023-07-29T04:12:03;2.90;;;2.20;;
3916;SDS011;1973;50.518;7.318;2023-07-29T04:14:30;3.13;;;2.30;;
3916;SDS011;1973;50.518;7.318;2023-07-29T04:16:57;2.57;;;1.60;;
3916;SDS011;1973;50.518;7.318;2023-07-29T04:19:23;5.10;;;2.00;;
3916;SDS011;1973;50.518;7.318;2023-07-29T04:21:50;5.80;;;5.10;;
3916;SDS011;1973;50.518;7.318;2023-07-29T04:24:17;9.83;;;6.67;;
3916;SDS011;1973;50.518;7.318;2023-07-29T04:26:43;8.53;;;7.47;;
3916;SDS011;1973;50.518;7.318;2023-07-29T04:29:11;9.40;;;8.10;;
3916;SDS011;1973;50.518;7.318;2023-07-29T04:31:38;10.03;;;9.03;;
3916;SDS011;1973;50.518;7.318;2023-07-29T04:34:04;13.10;;;8.37;;
3916;SDS011;1973;50.518;7.318;2023-07-29T04:36:31;10.00;;;9.07;;
3916;SDS011;1973;50.518;7.318;2023-07-29T04:38:58;9.27;;;8.47;;
3916;SDS011;1973;50.518;7.318;2023-07-29T04:41:24;12.33;;;8.70;;
3916;SDS011;1973;50.518;7.318;2023-07-29T04:43:51;8.90;;;7.93;;
3916;SDS011;1973;50.518;7.318;2023-07-29T04:46:18;9.40;;;8.03;;
3916;SDS011;1973;50.518;7.318;2023-07-29T04:48:45;8.83;;;7.93;;
3916;SDS011;1973;50.518;7.318;2023-07-29T04:51:11;9.63;;;6.73;;
3916;SDS011;1973;50.518;7.318;2023-07-29T04:53:38;6.80;;;6.10;;
3916;SDS011;1973;50.518;7.318;2023-07-29T04:56:04;6.93;;;6.23;;
3916;SDS011;1973;50.518;7.318;2023-07-29T04:58:31;6.07;;;5.43;;
3916;SDS011;1973;50.518;7.318;2023-07-29T05:01:01;6.37;;;5.70;;
3916;SDS011;1973;50.518;7.318;2023-07-29T05:03:29;6.73;;;4.90;;
3916;SDS011;1973;50.518;7.318;2023-07-29T05:05:55;6.83;;;5.23;;
3916;SDS011;1973;50.518;7.318;2023-07-29T05:08:23;4.80;;;4.27;;
3916;SDS011;1973;50.518;7.318;2023-07-29T05:10:50;5.20;;;4.57;;
3916;SDS011;1973;50.518;7.318;2023-07-29T05:13:18;5.00;;;3.97;;
3916;SDS011;1973;50.518;7.318;2023-07-29T05:15:45;4.00;;;3.60;;
3916;SDS011;1973;50.518;7.318;2023-07-29T05:18:14;4.20;;;3.40;;
3916;SDS011;1973;50.518;7.318;2023-07-29T05:20:41;7.20;;;4.50;;
3916;SDS011;1973;50.518;7.318;2023-07-29T05:23:08;4.90;;;4.27;;
3916;SDS011;1973;50.518;7.318;2023-07-29T05:25:34;8.00;;;4.77;;
3916;SDS011;1973;50.518;7.318;2023-07-29T05:28:01;5.40;;;4.13;;
3916;SDS011;1973;50.518;7.318;2023-07-29T05:30:29;6.13;;;3.90;;
3916;SDS011;1973;50.518;7.318;2023-07-29T05:32:57;6.83;;;5.90;;
3916;SDS011;1973;50.518;7.318;2023-07-29T05:35:24;9.10;;;6.30;;
3916;SDS011;1973;50.518;7.318;2023-07-29T05:37:51;7.63;;;6.00;;
3916;SDS011;1973;50.518;7.318;2023-07-29T05:40:17;6.53;;;5.40;;
3916;SDS011;1973;50.518;7.318;2023-07-29T05:42:44;6.07;;;5.47;;
3916;SDS011;1973;50.518;7.318;2023-07-29T05:45:11;5.20;;;4.70;;
3916;SDS011;1973;50.518;7.318;2023-07-29T05:47:38;5.13;;;4.63;;
3916;SDS011;1973;50.518;7.318;2023-07-29T05:50:04;5.00;;;4.60;;
3916;SDS011;1973;50.518;7.318;2023-07-29T05:52:32;6.13;;;3.50;;
3916;SDS011;1973;50.518;7.318;2023-07-29T05:54:58;5.00;;;2.83;;
3916;SDS011;1973;50.518;7.318;2023-07-29T05:57:25;3.80;;;3.50;;
3916;SDS011;1973;50.518;7.318;2023-07-29T05:59:52;5.70;;;3.40;;
3916;SDS011;1973;50.518;7.318;2023-07-29T06:02:18;3.37;;;3.07;;
3916;SDS011;1973;50.518;7.318;2023-07-29T06:04:45;3.60;;;2.50;;
3916;SDS011;1973;50.518;7.318;2023-07-29T06:07:11;3.20;;;2.87;;
3916;SDS011;1973;50.518;7.318;2023-07-29T06:09:38;3.67;;;2.40;;
3916;SDS011;1973;50.518;7.318;2023-07-29T06:12:06;3.30;;;2.80;;
3916;SDS011;1973;50.518;7.318;2023-07-29T06:14:33;3.27;;;2.50;;
3916;SDS011;1973;50.518;7.318;2023-07-29T06:16:59;4.67;;;2.90;;
3916;SDS011;1973;50.518;7.318;2023-07-29T06:19:27;4.23;;;3.63;;
3916;SDS011;1973;50.518;7.318;2023-07-29T06:21:54;6.67;;;3.87;;
3916;SDS011;1973;50.518;7.318;2023-07-29T06:24:22;4.70;;;3.33;;
3916;SDS011;1973;50.518;7.318;2023-07-29T06:26:48;3.40;;;3.10;;
3916;SDS011;1973;50.518;7.318;2023-07-29T06:29:15;3.97;;;3.53;;
3916;SDS011;1973;50.518;7.318;2023-07-29T06:31:41;4.30;;;3.90;;
3916;SDS011;1973;50.518;7.318;2023-07-29T06:34:08;4.60;;;4.20;;
3916;SDS011;1973;50.518;7.318;2023-07-29T06:36:35;4.67;;;4.17;;
3916;SDS011;1973;50.518;7.318;2023-07-29T06:39:02;3.63;;;3.33;;
3916;SDS011;1973;50.518;7.318;2023-07-29T06:41:28;3.40;;;3.10;;
3916;SDS011;1973;50.518;7.318;2023-07-29T06:43:55;3.00;;;2.70;;
3916;SDS011;1973;50.518;7.318;2023-07-29T06:46:21;4.23;;;3.00;;
3916;SDS011;1973;50.518;7.318;2023-07-29T06:48:48;5.73;;;2.60;;
3916;SDS011;1973;50.518;7.318;2023-07-29T06:51:14;2.67;;;2.47;;
3916;SDS011;1973;50.518;7.318;2023-07-29T06:53:41;4.83;;;2.97;;
3916;SDS011;1973;50.518;7.318;2023-07-29T06:56:08;5.63;;;2.57;;
3916;SDS011;1973;50.518;7.318;2023-07-29T06:58:34;2.70;;;2.50;;
3916;SDS011;1973;50.518;7.318;2023-07-29T07:01:01;3.00;;;2.30;;
3916;SDS011;1973;50.518;7.318;2023-07-29T07:03:29;3.40;;;2.97;;
3916;SDS011;1973;50.518;7.318;2023-07-29T07:05:56;2.97;;;2.77;;
3916;SDS011;1973;50.518;7.318;2023-07-29T07:08:22;3.73;;;2.67;;
3916;SDS011;1973;50.518;7.318;2023-07-29T07:10:49;2.83;;;2.60;;
3916;SDS011;1973;50.518;7.318;2023-07-29T07:13:15;3.50;;;2.90;;
3916;SDS011;1973;50.518;7.318;2023-07-29T07:15:42;3.97;;;3.00;;
3916;SDS011;1973;50.518;7.318;2023-07-29T07:18:09;5.27;;;4.77;;
3916;SDS011;1973;50.518;7.318;2023-07-29T07:20:35;6.23;;;5.67;;
3916;SDS011;1973;50.518;7.318;2023-07-29T07:23:03;9.93;;;6.70;;
3916;SDS011;1973;50.518;7.318;2023-07-29T07:25:31;9.00;;;7.20;;
3916;SDS011;1973;50.518;7.318;2023-07-29T07:27:58;9.20;;;7.00;;
3916;SDS011;1973;50.518;7.318;2023-07-29T07:30:24;13.70;;;12.40;;
3916;SDS011;1973;50.518;7.318;2023-07-29T07:32:51;15.27;;;13.87;;
3916;SDS011;1973;50.518;7.318;2023-07-29T07:35:18;16.90;;;15.30;;
3916;SDS011;1973;50.518;7.318;2023-07-29T07:37:45;16.90;;;15.20;;
3916;SDS011;1973;50.518;7.318;2023-07-29T07:40:11;17.27;;;15.47;;
3916;SDS011;1973;50.518;7.318;2023-07-29T07:42:38;15.90;;;14.47;;
3916;SDS011;1973;50.518;7.318;2023-07-29T07:45:05;11.00;;;9.90;;
3916;SDS011;1973;50.518;7.318;2023-07-29T07:47:31;12.27;;;8.83;;
3916;SDS011;1973;50.518;7.318;2023-07-29T07:49:58;9.43;;;7.20;;
3916;SDS011;1973;50.518;7.318;2023-07-29T07:52:25;10.90;;;6.07;;
3916;SDS011;1973;50.518;7.318;2023-07-29T07:54:52;8.53;;;7.03;;
3916;SDS011;1973;50.518;7.318;2023-07-29T07:57:20;7.17;;;6.47;;
3916;SDS011;1973;50.518;7.318;2023-07-29T07:59:47;6.07;;;5.57;;
3916;SDS011;1973;50.518;7.318;2023-07-29T08:02:13;5.13;;;4.10;;
3916;SDS011;1973;50.518;7.318;2023-07-29T08:04:40;3.80;;;3.50;;
3916;SDS011;1973;50.518;7.318;2023-07-29T08:07:06;3.37;;;3.00;;
3916;SDS011;1973;50.518;7.318;2023-07-29T08:09:33;2.93;;;2.73;;
3916;SDS011;1973;50.518;7.318;2023-07-29T08:11:59;3.67;;;2.83;;
3916;SDS011;1973;50.518;7.318;2023-07-29T08:14:26;2.97;;;2.77;;
3916;SDS011;1973;50.518;7.318;2023-07-29T08:16:53;3.67;;;3.00;;
3916;SDS011;1973;50.518;7.318;2023-07-29T08:19:19;2.60;;;2.40;;
3916;SDS011;1973;50.518;7.318;2023-07-29T08:21:48;2.80;;;2.40;;
3916;SDS011;1973;50.518;7.318;2023-07-29T08:24:14;2.30;;;1.90;;
3916;SDS011;1973;50.518;7.318;2023-07-29T08:26:41;2.10;;;1.90;;
3916;SDS011;1973;50.518;7.318;2023-07-29T08:29:07;1.97;;;1.73;;
3916;SDS011;1973;50.518;7.318;2023-07-29T08:31:34;1.90;;;1.70;;
3916;SDS011;1973;50.518;7.318;2023-07-29T08:34:01;2.87;;;2.23;;
3916;SDS011;1973;50.518;7.318;2023-07-29T08:36:27;2.30;;;2.03;;
3916;SDS011;1973;50.518;7.318;2023-07-29T08:38:54;2.27;;;1.60;;
3916;SDS011;1973;50.518;7.318;2023-07-29T08:41:29;2.60;;;2.17;;
3916;SDS011;1973;50.518;7.318;2023-07-29T08:44:12;2.13;;;1.83;;
3916;SDS011;1973;50.518;7.318;2023-07-29T08:46:43;2.77;;;2.57;;
3916;SDS011;1973;50.518;7.318;2023-07-29T08:49:11;4.30;;;3.53;;
3916;SDS011;1973;50.518;7.318;2023-07-29T08:51:41;5.10;;;2.50;;
3916;SDS011;1973;50.518;7.318;2023-07-29T08:54:09;3.17;;;2.70;;
3916;SDS011;1973;50.518;7.318;2023-07-29T08:56:37;2.83;;;1.90;;
3916;SDS011;1973;50.518;7.318;2023-07-29T08:59:04;2.33;;;1.90;;
3916;SDS011;1973;50.518;7.318;2023-07-29T09:01:31;2.27;;;2.07;;
3916;SDS011;1973;50.518;7.318;2023-07-29T09:03:58;2.07;;;1.80;;
3916;SDS011;1973;50.518;7.318;2023-07-29T09:06:25;4.33;;;3.97;;
3916;SDS011;1973;50.518;7.318;2023-07-29T09:08:54;6.13;;;4.37;;
3916;SDS011;1973;50.518;7.318;2023-07-29T09:11:22;3.53;;;3.23;;
3916;SDS011;1973;50.518;7.318;2023-07-29T09:13:49;3.70;;;2.70;;
3916;SDS011;1973;50.518;7.318;2023-07-29T09:16:16;3.80;;;2.17;;
3916;SDS011;1973;50.518;7.318;2023-07-29T09:18:43;3.97;;;2.90;;
3916;SDS011;1973;50.518;7.318;2023-07-29T09:21:09;12.00;;;10.03;;
3916;SDS011;1973;50.518;7.318;2023-07-29T09:23:42;4.90;;;4.40;;
3916;SDS011;1973;50.518;7.318;2023-07-29T09:26:10;4.20;;;2.87;;
3916;SDS011;1973;50.518;7.318;2023-07-29T09:28:37;3.00;;;2.40;;
3916;SDS011;1973;50.518;7.318;2023-07-29T09:31:05;2.43;;;2.23;;
3916;SDS011;1973;50.518;7.318;2023-07-29T09:33:33;2.70;;;2.30;;
3916;SDS011;1973;50.518;7.318;2023-07-29T09:36:08;3.43;;;2.00;;
3916;SDS011;1973;50.518;7.318;2023-07-29T09:38:35;2.40;;;2.00;;
3916;SDS011;1973;50.518;7.318;2023-07-29T09:41:03;2.50;;;2.07;;
3916;SDS011;1973;50.518;7.318;2023-07-29T09:43:30;3.70;;;2.67;;
3916;SDS011;1973;50.518;7.318;2023-07-29T09:46:01;4.37;;;2.10;;
3916;SDS011;1973;50.518;7.318;2023-07-29T09:48:28;2.20;;;1.90;;
3916;SDS011;1973;50.518;7.318;2023-07-29T09:50:59;3.20;;;2.60;;
3916;SDS011;1973;50.518;7.318;2023-07-29T09:53:25;2.30;;;1.97;;
3916;SDS011;1973;50.518;7.318;2023-07-29T09:55:52;2.77;;;2.40;;
3916;SDS011;1973;50.518;7.318;2023-07-29T09:58:21;2.90;;;2.60;;
3916;SDS011;1973;50.518;7.318;2023-07-29T10:00:53;3.10;;;1.73;;
3916;SDS011;1973;50.518;7.318;2023-07-29T10:03:22;2.43;;;1.63;;
3916;SDS011;1973;50.518;7.318;2023-07-29T10:05:51;2.50;;;1.80;;
3916;SDS011;1973;50.518;7.318;2023-07-29T10:08:18;2.23;;;2.00;;
3916;SDS011;1973;50.518;7.318;2023-07-29T10:10:45;2.40;;;1.70;;
3916;SDS011;1973;50.518;7.318;2023-07-29T10:13:12;3.00;;;2.10;;
3916;SDS011;1973;50.518;7.318;2023-07-29T10:15:39;2.50;;;2.10;;
3916;SDS011;1973;50.518;7.318;2023-07-29T10:18:06;2.57;;;2.17;;
3916;SDS011;1973;50.518;7.318;2023-07-29T10:20:33;2.33;;;2.13;;
3916;SDS011;1973;50.518;7.318;2023-07-29T10:23:01;2.20;;;2.00;;
3916;SDS011;1973;50.518;7.318;2023-07-29T10:25:40;2.17;;;1.90;;
3916;SDS011;1973;50.518;7.318;2023-07-29T10:28:12;4.00;;;2.67;;
3916;SDS011;1973;50.518;7.318;2023-07-29T10:30:41;2.50;;;2.30;;
3916;SDS011;1973;50.518;7.318;2023-07-29T10:33:08;3.00;;;1.90;;
3916;SDS011;1973;50.518;7.318;2023-07-29T10:35:36;3.00;;;2.17;;
3916;SDS011;1973;50.518;7.318;2023-07-29T10:38:04;4.03;;;3.00;;
3916;SDS011;1973;50.518;7.318;2023-07-29T10:40:47;5.53;;;2.63;;
3916;SDS011;1973;50.518;7.318;2023-07-29T10:43:24;2.00;;;1.73;;
3916;SDS011;1973;50.518;7.318;2023-07-29T10:45:52;2.90;;;2.40;;
3916;SDS011;1973;50.518;7.318;2023-07-29T10:48:40;3.80;;;2.20;;
3916;SDS011;1973;50.518;7.318;2023-07-29T10:54:02;2.83;;;2.40;;
3916;SDS011;1973;50.518;7.318;2023-07-29T10:56:30;3.33;;;2.20;;
3916;SDS011;1973;50.518;7.318;2023-07-29T10:59:02;4.03;;;2.00;;
3916;SDS011;1973;50.518;7.318;2023-07-29T11:01:53;2.27;;;2.07;;
3916;SDS011;1973;50.518;7.318;2023-07-29T11:04:23;3.77;;;2.83;;
3916;SDS011;1973;50.518;7.318;2023-07-29T11:09:40;4.70;;;3.73;;
3916;SDS011;1973;50.518;7.318;2023-07-29T11:12:37;4.40;;;3.30;;
3916;SDS011;1973;50.518;7.318;2023-07-29T11:17:31;3.70;;;3.30;;
3916;SDS011;1973;50.518;7.318;2023-07-29T11:20:01;3.37;;;2.77;;
3916;SDS011;1973;50.518;7.318;2023-07-29T11:22:29;3.93;;;3.50;;
3916;SDS011;1973;50.518;7.318;2023-07-29T11:24:59;3.60;;;2.63;;
3916;SDS011;1973;50.518;7.318;2023-07-29T11:27:26;2.60;;;2.40;;
3916;SDS011;1973;50.518;7.318;2023-07-29T11:29:59;2.80;;;2.40;;
3916;SDS011;1973;50.518;7.318;2023-07-29T11:32:26;2.50;;;2.30;;
3916;SDS011;1973;50.518;7.318;2023-07-29T11:34:53;2.67;;;2.10;;
3916;SDS011;1973;50.518;7.318;2023-07-29T11:37:20;2.30;;;2.00;;
3916;SDS011;1973;50.518;7.318;2023-07-29T11:39:47;1.77;;;1.63;;
3916;SDS011;1973;50.518;7.318;2023-07-29T11:42:14;1.90;;;1.63;;
3916;SDS011;1973;50.518;7.318;2023-07-29T11:44:41;2.43;;;2.23;;
3916;SDS011;1973;50.518;7.318;2023-07-29T11:47:11;2.53;;;2.10;;
3916;SDS011;1973;50.518;7.318;2023-07-29T11:49:39;4.43;;;3.00;;
3916;SDS011;1973;50.518;7.318;2023-07-29T11:52:07;3.97;;;3.10;;
3916;SDS011;1973;50.518;7.318;2023-07-29T11:54:35;2.93;;;2.20;;
3916;SDS011;1973;50.518;7.318;2023-07-29T11:57:03;2.13;;;1.70;;
3916;SDS011;1973;50.518;7.318;2023-07-29T11:59:35;2.73;;;1.90;;
3916;SDS011;1973;50.518;7.318;2023-07-29T12:02:05;2.43;;;2.23;;
3916;SDS011;1973;50.518;7.318;2023-07-29T12:04:36;2.10;;;1.90;;
3916;SDS011;1973;50.518;7.318;2023-07-29T12:07:04;4.10;;;2.07;;
3916;SDS011;1973;50.518;7.318;2023-07-29T12:09:31;3.63;;;2.13;;
3916;SDS011;1973;50.518;7.318;2023-07-29T12:11:58;2.60;;;1.97;;
3916;SDS011;1973;50.518;7.318;2023-07-29T12:14:26;2.43;;;1.47;;
3916;SDS011;1973;50.518;7.318;2023-07-29T12:16:54;2.23;;;1.50;;
3916;SDS011;1973;50.518;7.318;2023-07-29T12:19:21;2.00;;;1.63;;
3916;SDS011;1973;50.518;7.318;2023-07-29T12:21:48;2.90;;;1.73;;
3916;SDS011;1973;50.518;7.318;2023-07-29T12:24:15;2.67;;;1.83;;
3916;SDS011;1973;50.518;7.318;2023-07-29T12:26:42;2.70;;;1.97;;
3916;SDS011;1973;50.518;7.318;2023-07-29T12:29:16;2.40;;;1.60;;
3916;SDS011;1973;50.518;7.318;2023-07-29T12:31:46;1.40;;;1.23;;
3916;SDS011;1973;50.518;7.318;2023-07-29T12:34:19;1.70;;;1.40;;
3916;SDS011;1973;50.518;7.318;2023-07-29T12:36:48;3.37;;;1.60;;
3916;SDS011;1973;50.518;7.318;2023-07-29T12:39:20;1.93;;;1.60;;
3916;SDS011;1973;50.518;7.318;2023-07-29T12:41:51;2.83;;;1.60;;
3916;SDS011;1973;50.518;7.318;2023-07-29T12:44:19;4.13;;;1.70;;
3916;SDS011;1973;50.518;7.318;2023-07-29T12:46:45;1.73;;;1.57;;
3916;SDS011;1973;50.518;7.318;2023-07-29T12:49:12;2.23;;;1.70;;
3916;SDS011;1973;50.518;7.318;2023-07-29T12:51:39;1.50;;;1.40;;
3916;SDS011;1973;50.518;7.318;2023-07-29T12:54:05;2.20;;;2.00;;
3916;SDS011;1973;50.518;7.318;2023-07-29T12:56:32;2.30;;;1.53;;
3916;SDS011;1973;50.518;7.318;2023-07-29T12:59:00;1.93;;;1.47;;
3916;SDS011;1973;50.518;7.318;2023-07-29T13:01:27;1.67;;;1.23;;
3916;SDS011;1973;50.518;7.318;2023-07-29T13:03:55;1.87;;;1.63;;
3916;SDS011;1973;50.518;7.318;2023-07-29T13:06:22;1.80;;;1.50;;
3916;SDS011;1973;50.518;7.318;2023-07-29T13:08:49;2.13;;;1.67;;
3916;SDS011;1973;50.518;7.318;2023-07-29T13:11:16;1.50;;;1.30;;
3916;SDS011;1973;50.518;7.318;2023-07-29T13:13:43;1.63;;;1.50;;
3916;SDS011;1973;50.518;7.318;2023-07-29T13:16:11;2.10;;;1.20;;
3916;SDS011;1973;50.518;7.318;2023-07-29T13:18:39;1.67;;;1.30;;
3916;SDS011;1973;50.518;7.318;2023-07-29T13:21:07;3.50;;;1.70;;
3916;SDS011;1973;50.518;7.318;2023-07-29T13:23:33;2.33;;;1.40;;
3916;SDS011;1973;50.518;7.318;2023-07-29T13:26:00;1.77;;;1.67;;
3916;SDS011;1973;50.518;7.318;2023-07-29T13:28:27;3.47;;;3.17;;
3916;SDS011;1973;50.518;7.318;2023-07-29T13:30:54;4.53;;;4.13;;
3916;SDS011;1973;50.518;7.318;2023-07-29T13:33:20;4.40;;;3.37;;
3916;SDS011;1973;50.518;7.318;2023-07-29T13:35:47;3.67;;;2.50;;
3916;SDS011;1973;50.518;7.318;2023-07-29T13:38:13;2.63;;;1.80;;
3916;SDS011;1973;50.518;7.318;2023-07-29T13:40:40;2.67;;;2.07;;
3916;SDS011;1973;50.518;7.318;2023-07-29T13:43:07;2.17;;;1.90;;
3916;SDS011;1973;50.518;7.318;2023-07-29T13:45:34;1.77;;;1.60;;
3916;SDS011;1973;50.518;7.318;2023-07-29T13:48:01;3.30;;;2.00;;
3916;SDS011;1973;50.518;7.318;2023-07-29T13:50:27;3.10;;;1.80;;
3916;SDS011;1973;50.518;7.318;2023-07-29T13:52:54;1.90;;;1.70;;
3916;SDS011;1973;50.518;7.318;2023-07-29T13:55:21;1.80;;;1.60;;
3916;SDS011;1973;50.518;7.318;2023-07-29T13:57:47;3.30;;;1.77;;
3916;SDS011;1973;50.518;7.318;2023-07-29T14:00:14;2.10;;;1.77;;
3916;SDS011;1973;50.518;7.318;2023-07-29T14:02:41;2.33;;;2.13;;
3916;SDS011;1973;50.518;7.318;2023-07-29T14:05:08;2.40;;;1.83;;
3916;SDS011;1973;50.518;7.318;2023-07-29T14:07:35;2.30;;;2.00;;
3916;SDS011;1973;50.518;7.318;2023-07-29T14:10:02;2.20;;;1.80;;
3916;SDS011;1973;50.518;7.318;2023-07-29T14:12:28;2.67;;;2.03;;
3916;SDS011;1973;50.518;7.318;2023-07-29T14:14:55;2.30;;;2.10;;
3916;SDS011;1973;50.518;7.318;2023-07-29T14:17:22;1.70;;;1.37;;
3916;SDS011;1973;50.518;7.318;2023-07-29T14:19:48;2.90;;;1.60;;
3916;SDS011;1973;50.518;7.318;2023-07-29T14:22:15;3.40;;;2.00;;
3916;SDS011;1973;50.518;7.318;2023-07-29T14:24:41;2.47;;;1.90;;
3916;SDS011;1973;50.518;7.318;2023-07-29T14:27:08;2.73;;;1.70;;
3916;SDS011;1973;50.518;7.318;2023-07-29T14:29:34;2.67;;;2.07;;
3916;SDS011;1973;50.518;7.318;2023-07-29T14:32:01;2.63;;;1.90;;
3916;SDS011;1973;50.518;7.318;2023-07-29T14:34:28;2.37;;;2.17;;
3916;SDS011;1973;50.518;7.318;2023-07-29T14:36:55;3.53;;;2.70;;
3916;SDS011;1973;50.518;7.318;2023-07-29T14:39:22;2.60;;;2.40;;
3916;SDS011;1973;50.518;7.318;2023-07-29T14:41:48;2.20;;;1.87;;
3916;SDS011;1973;50.518;7.318;2023-07-29T14:44:15;1.77;;;1.63;;
3916;SDS011;1973;50.518;7.318;2023-07-29T14:46:42;2.20;;;1.67;;
3916;SDS011;1973;50.518;7.318;2023-07-29T14:49:08;1.93;;;1.53;;
3916;SDS011;1973;50.518;7.318;2023-07-29T14:51:35;2.13;;;1.80;;
3916;SDS011;1973;50.518;7.318;2023-07-29T14:54:02;4.27;;;1.50;;
3916;SDS011;1973;50.518;7.318;2023-07-29T14:56:28;2.63;;;1.43;;
3916;SDS011;1973;50.518;7.318;2023-07-29T14:58:55;1.77;;;1.50;;
3916;SDS011;1973;50.518;7.318;2023-07-29T15:01:21;2.57;;;2.20;;
3916;SDS011;1973;50.518;7.318;2023-07-29T15:03:48;2.30;;;2.03;;
3916;SDS011;1973;50.518;7.318;2023-07-29T15:06:15;2.70;;;1.70;;
3916;SDS011;1973;50.518;7.318;2023-07-29T15:08:41;3.03;;;2.53;;
3916;SDS011;1973;50.518;7.318;2023-07-29T15:11:08;3.63;;;3.10;;
3916;SDS011;1973;50.518;7.318;2023-07-29T15:13:35;2.10;;;1.90;;
3916;SDS011;1973;50.518;7.318;2023-07-29T15:16:01;3.40;;;2.60;;
3916;SDS011;1973;50.518;7.318;2023-07-29T15:18:28;4.03;;;2.00;;
3916;SDS011;1973;50.518;7.318;2023-07-29T15:20:56;2.67;;;2.40;;
3916;SDS011;1973;50.518;7.318;2023-07-29T15:23:23;2.30;;;1.77;;
3916;SDS011;1973;50.518;7.318;2023-07-29T15:25:50;2.27;;;1.80;;
3916;SDS011;1973;50.518;7.318;2023-07-29T15:28:16;2.47;;;1.77;;
3916;SDS011;1973;50.518;7.318;2023-07-29T15:30:43;2.37;;;1.80;;
3916;SDS011;1973;50.518;7.318;2023-07-29T15:33:10;1.90;;;1.70;;
3916;SDS011;1973;50.518;7.318;2023-07-29T15:35:37;2.20;;;1.83;;